createdAt,value
2022-12-01T00:03:14.401Z,102170.34
2022-12-01T00:13:16.047Z,102164.19
2022-12-01T00:23:17.395Z,102151.19
2022-12-01T00:33:18.738Z,102164.34
2022-12-01T00:43:20.188Z,102152.38
2022-12-01T00:53:21.842Z,102153.47
2022-12-01T01:03:23.179Z,102161.91
2022-12-01T01:13:24.548Z,102162.00
2022-12-01T01:23:26.209Z,102170.78
2022-12-01T01:33:27.878Z,102182.19
2022-12-01T01:43:45.678Z,102186.09
2022-12-01T01:53:49.148Z,102188.84
2022-12-01T02:03:54.217Z,102187.47
2022-12-01T02:14:14.871Z,102178.38
2022-12-01T02:24:41.035Z,102185.03
2022-12-01T02:34:46.615Z,102187.22
2022-12-01T02:44:48.830Z,102175.06
2022-12-01T02:54:50.955Z,102180.44
2022-12-01T03:05:09.893Z,102186.56
2022-12-01T03:15:18.413Z,102182.13
2022-12-01T03:25:24.374Z,102185.22
2022-12-01T03:35:41.422Z,102180.81
2022-12-01T03:45:55.384Z,102197.72
2022-12-01T03:56:02.568Z,102187.31
2022-12-01T04:06:04.371Z,102193.84
2022-12-01T04:16:05.867Z,102193.53
2022-12-01T04:26:11.175Z,102184.88
2022-12-01T04:36:16.290Z,102191.41
2022-12-01T04:46:17.704Z,102196.16
2022-12-01T04:56:19.262Z,102183.25
2022-12-01T05:06:26.482Z,102177.94
2022-12-01T05:16:31.700Z,102195.66
2022-12-01T05:26:33.515Z,102195.03
2022-12-01T05:36:34.899Z,102192.53
2022-12-01T05:46:36.298Z,102197.22
2022-12-01T05:56:37.635Z,102215.00
2022-12-01T06:06:38.951Z,102201.69
2022-12-01T06:16:40.323Z,102211.22
2022-12-01T06:26:41.707Z,102208.25
2022-12-01T06:36:44.338Z,102216.97
2022-12-01T06:46:45.711Z,102212.94
2022-12-01T06:56:47.203Z,102230.34
2022-12-01T07:06:48.899Z,102229.78
2022-12-01T07:16:50.732Z,102233.34
2022-12-01T07:26:52.142Z,102245.06
2022-12-01T07:36:53.557Z,102246.34
2022-12-01T07:46:55.118Z,102246.63
2022-12-01T07:56:56.448Z,102257.22
2022-12-01T08:06:57.829Z,102254.69
2022-12-01T08:16:59.151Z,102259.31
2022-12-01T08:27:00.464Z,102270.41
2022-12-01T08:37:01.803Z,102269.72
2022-12-01T08:47:03.234Z,102274.59
2022-12-01T08:57:04.656Z,102273.31
2022-12-01T09:07:05.999Z,102278.91
2022-12-01T09:17:08.673Z,102281.34
2022-12-01T09:27:10.107Z,102281.19
2022-12-01T09:37:12.069Z,102293.72
2022-12-01T09:47:18.809Z,102294.78
2022-12-01T09:57:39.736Z,102293.19
2022-12-01T10:07:48.857Z,102276.34
2022-12-01T10:18:25.413Z,102273.97
2022-12-01T10:28:46.051Z,102265.38
2022-12-01T10:38:47.398Z,102274.53
2022-12-01T10:48:59.667Z,102259.69
2022-12-01T10:59:17.222Z,102261.50
2022-12-01T11:09:26.167Z,102263.06
2022-12-01T11:19:33.220Z,102259.88
2022-12-01T11:29:37.293Z,102263.13
2022-12-01T11:39:41.353Z,102254.09
2022-12-01T11:49:47.238Z,102255.06
2022-12-01T11:59:49.255Z,102244.19
2022-12-01T12:09:59.594Z,102233.91
2022-12-01T12:20:25.819Z,102236.50
2022-12-01T12:30:35.148Z,102233.06
2022-12-01T12:40:42.790Z,102226.63
2022-12-01T12:51:02.158Z,102213.28
2022-12-01T13:01:17.703Z,102204.16
2022-12-01T13:11:24.243Z,102209.94
2022-12-01T13:21:37.068Z,102203.50
2022-12-01T13:31:47.753Z,102190.03
2022-12-01T13:42:01.355Z,102173.41
2022-12-01T13:52:21.056Z,102181.88
2022-12-01T14:02:22.690Z,102187.97
2022-12-01T14:12:30.154Z,102192.44
2022-12-01T14:22:38.440Z,102172.41
2022-12-01T14:32:39.819Z,102182.81
2022-12-01T14:43:03.612Z,102189.25
2022-12-01T14:53:16.248Z,102192.19
2022-12-01T15:03:50.845Z,102191.59
2022-12-01T15:13:54.498Z,102177.16
2022-12-01T15:24:05.815Z,102185.59
2022-12-01T15:34:15.913Z,102194.97
2022-12-01T15:44:26.182Z,102195.34
2022-12-01T15:54:27.822Z,102203.56
2022-12-01T16:04:35.242Z,102202.63
2022-12-01T16:14:37.093Z,102197.50
2022-12-01T16:24:46.648Z,102175.50
2022-12-01T16:34:49.570Z,102181.09
2022-12-01T16:44:52.257Z,102179.25
2022-12-01T16:54:53.915Z,102172.22
2022-12-01T17:04:55.336Z,102187.81
2022-12-01T17:14:56.678Z,102188.47
2022-12-01T17:24:59.289Z,102203.50
2022-12-01T17:35:00.765Z,102210.41
2022-12-01T17:45:02.188Z,102210.69
2022-12-01T17:55:04.206Z,102209.13
2022-12-01T18:05:06.746Z,102219.13
2022-12-01T18:15:08.873Z,102220.09
2022-12-01T18:25:10.273Z,102227.84
2022-12-01T18:35:11.595Z,102217.38
2022-12-01T18:45:19.405Z,102218.66
2022-12-01T18:55:22.319Z,102215.97
2022-12-01T19:05:24.249Z,102201.84
2022-12-01T19:15:25.620Z,102213.41
2022-12-01T19:25:26.953Z,102203.63
2022-12-01T19:35:28.264Z,102208.56
2022-12-01T19:45:31.352Z,102204.78
2022-12-01T19:55:32.763Z,102209.09
2022-12-01T20:05:34.166Z,102208.16
2022-12-01T20:15:35.502Z,102212.00
2022-12-01T20:25:36.903Z,102213.41
2022-12-01T20:35:38.239Z,102216.38
2022-12-01T20:45:39.849Z,102217.22
2022-12-01T20:55:41.356Z,102214.41
2022-12-01T21:05:43.391Z,102202.75
2022-12-01T21:16:00.109Z,102199.16
2022-12-01T21:26:13.792Z,102195.56
2022-12-01T21:36:18.473Z,102189.50
2022-12-01T21:46:19.893Z,102180.94
2022-12-01T21:56:24.539Z,102175.47
2022-12-01T22:06:37.264Z,102164.28
2022-12-01T22:16:42.687Z,102155.78
2022-12-01T22:26:47.794Z,102156.94
2022-12-01T22:36:51.075Z,102150.31
2022-12-01T22:46:52.457Z,102154.25
2022-12-01T22:57:01.721Z,102142.00
2022-12-01T23:07:29.520Z,102133.34
2022-12-01T23:17:34.127Z,102142.00
2022-12-01T23:27:35.453Z,102152.16
2022-12-01T23:37:39.000Z,102136.53
2022-12-01T23:47:40.644Z,102125.91
2022-12-01T23:57:42.849Z,102128.00
